Kirkwood, California

11:22 AM PDT on September 28, 2016 (GMT -0700)
MesoWest | | Change Station

Elev 8353 ft 38.69 °N, 119.99 °W | Updated 1 hour ago

Clear
Clear
58.0 °F
Feels Like 58.0 °F
N
0.0
Wind Variable Wind from North
Gusts 0.0 mph

Today
High -- | Low -- °F
--% Chance of Precip.
Yesterday
High -- | Low -- °F
Precip. -- in
Pressure 30.05 in
Visibility 10.0 miles
Clouds Clear
Dew Point Not available.
Humidity Not available.
Rainfall in
Snow Depth Not available.
6:53 AM 6:46 PM
Waning Crescent, 5% visible
METAR KTVL 281753Z AUTO 04005KT 10SM CLR 21/02 A3020 RMK AO2 SLP176 T02110017 10211 20011 58003
Pressure 30.05 in
Visibility 10.0 miles
Clouds Clear
Dew Point Not available.
Humidity Not available.
Rainfall in
Snow Depth Not available.
6:53 AM 6:46 PM
Waning Crescent, 5% visible
METAR KTVL 281753Z AUTO 04005KT 10SM CLR 21/02 A3020 RMK AO2 SLP176 T02110017 10211 20011 58003

10-Day Weather Forecast

Almanac

Astronomy

Sep. 28, 2016 Rise Set
Actual Time
Civil Twilight
Nautical Twilight
Astronomical Twilight
Moon
Length of Visible Light
Length of Day
Tomorrow will be .
, % of the Moon is Illuminated

Today's Extremes

State Highs State Lows

Community

WunderPhotos

Upload Photos

1,942,297 photos uploaded!

WunderBlog® & News

Nearby

Air Quality

  Air Quality AQ Index Pollutant
Not available.

Snow Depth

Station Depth Elevation

Earthquake Activity

City Distance Mag. Time & Date
Minimum magnitude displayed is 2.5.

Coastal Water Temperatures

Place Temperature

Stations

Nearby Weather Stations

Station Location Temp. Windchill Dew Point Humidity Wind Precip. Elev Updated Type
                   

Watches & Warnings

There are currently no watches in effect.